Time;durP1;ratioP1;P1;durP2;ratioP2;P2;SDS_P1;SDS_P2;PMS_P1;PMS_P2;Temp;Humidity;BMP_temperature;BMP_pressure;BME280_temperature;BME280_humidity;BME280_pressure;Samples;Min_cycle;Max_cycle;Signal;HPM_P1;HPM_P2
2023/07/02 05:09:03;;;;;;;;;;;;;;;21.33;68.28;96727.16;4234403;27;10373;-72
2023/07/02 05:11:06;;;;;;;;;;;;;;;21.62;67.82;96724.81;4215866;28;5701;-73
2023/07/02 05:13:09;;;;;;;;;;;;;;;21.85;67.46;96735.09;4221668;28;5660;-72
2023/07/02 05:15:12;;;;;;;;;;;;;;;22.00;67.07;96726.25;4221087;28;5771;-74
2023/07/02 05:17:16;;;;;;;;;;;;;;;22.16;66.79;96732.50;4224067;28;5823;-74
2023/07/02 05:19:18;;;;;;;;;;;;;;;22.26;66.13;96736.00;4221196;28;5874;-72
2023/07/02 05:21:22;;;;;;;;;;;;;;;22.37;65.89;96734.13;4225653;28;5682;-74
2023/07/02 05:23:25;;;;;;;;;;;;;;;22.42;66.01;96731.41;4221941;28;5781;-74
2023/07/02 05:25:29;;;;;;;;;;;;;;;22.47;65.37;96738.69;4226271;28;5672;-73
2023/07/02 05:27:32;;;;;;;;;;;;;;;22.49;65.24;96740.03;4222165;28;5665;-74
2023/07/02 05:29:35;;;;;;;;;;;;;;;22.55;65.08;96743.56;4222197;28;5752;-73
2023/07/02 05:31:37;;;;;;;;;;;;;;;22.58;65.30;96738.41;4230602;28;6315;-73
2023/07/02 05:33:41;;;;;;;;;;;;;;;22.58;64.76;96741.13;4216415;28;5780;-74
2023/07/02 05:35:45;;;;;;;;;;;;;;;22.60;64.83;96738.94;4222415;28;5927;-73
2023/07/02 05:37:48;;;;;;;;;;;;;;;22.61;64.63;96742.44;4224964;28;6387;-75
2023/07/02 05:39:51;;;;;;;;;;;;;;;22.62;64.64;96738.69;4223231;28;5929;-74
2023/07/02 05:41:55;;;;;;;;;;;;;;;22.64;64.63;96740.00;4221385;28;5720;-73
2023/07/02 05:43:58;;;;;;;;;;;;;;;22.69;64.65;96749.19;4214525;28;5745;-74
2023/07/02 05:46:01;;;;;;;;;;;;;;;22.72;64.06;96754.03;4222767;28;5668;-73
2023/07/02 05:48:04;;;;;;;;;;;;;;;22.76;64.46;96741.63;4223993;28;5698;-74
2023/07/02 05:50:09;;;;;;;;;;;;;;;22.79;64.26;96749.19;4227202;28;5786;-74
2023/07/02 05:52:12;;;;;;;;;;;;;;;22.80;63.84;96745.41;4223720;28;5780;-74
2023/07/02 05:54:14;;;;;;;;;;;;;;;22.81;63.83;96744.31;4229890;28;5834;-74
2023/07/02 05:56:18;;;;;;;;;;;;;;;22.83;63.50;96744.84;4231099;28;5756;-74
2023/07/02 05:58:22;;;;;;;;;;;;;;;22.85;63.53;96751.59;4230310;28;5752;-73
2023/07/02 06:00:41;;;;;;;;;;;;;;;22.88;63.42;96748.41;4217264;28;6423;-73
2023/07/02 06:02:47;;;;;;;;;;;;;;;22.89;63.46;96739.22;4213743;28;5780;-74
2023/07/02 06:04:50;;;;;;;;;;;;;;;22.91;62.98;96741.66;4227075;28;5748;-74
2023/07/02 06:06:53;;;;;;;;;;;;;;;22.92;63.14;96743.25;4231696;28;5665;-73
2023/07/02 06:08:56;;;;;;;;;;;;;;;22.93;63.09;96736.78;4216012;28;5660;-74
2023/07/02 06:10:59;;;;;;;;;;;;;;;22.93;63.29;96737.59;4216617;28;5892;-73
2023/07/02 06:13:02;;;;;;;;;;;;;;;22.97;63.28;96739.72;4212382;28;5689;-74
2023/07/02 06:15:08;;;;;;;;;;;;;;;23.01;62.60;96747.00;4219487;28;5081;-72
2023/07/02 06:17:11;;;;;;;;;;;;;;;23.02;62.67;96745.13;4217350;28;5763;-74
2023/07/02 06:19:14;;;;;;;;;;;;;;;23.03;62.73;96744.84;4212440;28;5677;-74
2023/07/02 06:21:17;;;;;;;;;;;;;;;23.03;62.15;96752.13;4217440;28;5721;-74
2023/07/02 06:23:20;;;;;;;;;;;;;;;23.05;62.43;96755.34;4215724;28;5912;-73
2023/07/02 06:25:22;;;;;;;;;;;;;;;23.05;62.29;96758.06;4215515;28;5781;-73
2023/07/02 06:27:25;;;;;;;;;;;;;;;23.07;62.10;96753.19;4214001;28;5779;-73
2023/07/02 06:29:28;;;;;;;;;;;;;;;23.10;61.94;96755.31;4215136;28;5668;-74
2023/07/02 06:31:33;;;;;;;;;;;;;;;23.10;61.52;96761.53;4212315;28;5690;-73
2023/07/02 06:33:39;;;;;;;;;;;;;;;23.12;61.53;96759.38;4212905;28;5804;-74
2023/07/02 06:35:42;;;;;;;;;;;;;;;23.10;61.06;96764.22;4212816;28;5825;-73
2023/07/02 06:37:45;;;;;;;;;;;;;;;23.11;60.92;96767.75;4209586;28;6363;-73
2023/07/02 06:39:48;;;;;;;;;;;;;;;23.11;61.00;96768.56;4209909;28;5763;-73
2023/07/02 06:41:51;;;;;;;;;;;;;;;23.11;60.89;96767.75;4218584;28;6441;-72
2023/07/02 06:43:54;;;;;;;;;;;;;;;23.11;60.65;96778.53;4209537;28;5761;-72
2023/07/02 06:45:57;;;;;;;;;;;;;;;23.10;60.58;96774.19;4218527;28;5669;-73
2023/07/02 06:48:01;;;;;;;;;;;;;;;23.11;60.84;96775.84;4201195;28;5682;-72
2023/07/02 06:50:05;;;;;;;;;;;;;;;23.10;60.93;96764.22;4218150;28;5676;-73
2023/07/02 06:52:08;;;;;;;;;;;;;;;23.10;60.72;96769.63;4212998;28;5833;-73
2023/07/02 06:54:13;;;;;;;;;;;;;;;23.06;60.67;96771.25;4212573;28;5763;-73
2023/07/02 06:56:16;;;;;;;;;;;;;;;23.08;60.71;96769.09;4212296;28;5672;-73
2023/07/02 06:58:19;;;;;;;;;;;;;;;23.09;60.24;96768.00;4211732;28;5685;-74
2023/07/02 07:00:22;;;;;;;;;;;;;;;23.10;60.26;96775.00;4215042;28;5686;-74
2023/07/02 07:02:25;;;;;;;;;;;;;;;23.11;60.04;96768.56;4214094;28;5756;-72
2023/07/02 07:04:29;;;;;;;;;;;;;;;23.12;59.87;96770.19;4214506;28;5690;-73
2023/07/02 07:06:34;;;;;;;;;;;;;;;23.14;60.09;96768.00;4213715;28;5755;-73
2023/07/02 07:08:39;;;;;;;;;;;;;;;23.17;59.86;96772.03;4212620;28;5761;-73
2023/07/02 07:10:41;;;;;;;;;;;;;;;23.19;60.04;96770.69;4208885;28;5683;-74
2023/07/02 07:12:44;;;;;;;;;;;;;;;23.20;60.12;96777.69;4209165;28;5811;-74
2023/07/02 07:14:47;;;;;;;;;;;;;;;23.20;59.65;96777.69;4208835;28;5699;-74
2023/07/02 07:16:50;;;;;;;;;;;;;;;23.22;59.85;96770.16;4209422;28;5795;-74
2023/07/02 07:18:53;;;;;;;;;;;;;;;23.24;59.87;96762.59;4209603;28;5896;-74
2023/07/02 07:20:57;;;;;;;;;;;;;;;23.24;59.44;96767.19;4216223;28;5920;-74
2023/07/02 07:23:00;;;;;;;;;;;;;;;23.26;59.82;96769.59;4201100;28;5793;-74
2023/07/02 07:25:03;;;;;;;;;;;;;;;23.28;59.74;96770.13;4217043;28;5681;-74
2023/07/02 07:27:06;;;;;;;;;;;;;;;23.30;59.63;96770.66;4209209;28;5661;-73
2023/07/02 07:29:09;;;;;;;;;;;;;;;23.30;59.24;96773.34;4209838;28;5767;-74
2023/07/02 07:31:12;;;;;;;;;;;;;;;;;;4207993;28;5803;-74
2023/07/02 07:33:15;;;;;;;;;;;;;;;23.31;59.04;96772.25;4206006;28;5706;-73
2023/07/02 07:35:18;;;;;;;;;;;;;;;23.32;59.17;96758.50;4208512;28;5920;-74
2023/07/02 07:37:22;;;;;;;;;;;;;;;23.34;59.09;96777.13;4216730;28;6366;-73
2023/07/02 07:39:25;;;;;;;;;;;;;;;23.35;59.24;96767.94;4207074;28;5728;-73
2023/07/02 07:41:28;;;;;;;;;;;;;;;23.35;58.85;96776.84;4210485;28;5850;-73
2023/07/02 07:43:31;;;;;;;;;;;;;;;23.34;58.92;96767.16;4212086;28;5752;-73
2023/07/02 07:45:34;;;;;;;;;;;;;;;23.30;59.27;96770.66;4216458;28;7062;-73
2023/07/02 07:47:37;;;;;;;;;;;;;;;23.30;59.18;96766.06;4210432;28;5707;-74
2023/07/02 07:49:40;;;;;;;;;;;;;;;23.32;59.09;96763.09;4216991;28;5823;-74
2023/07/02 07:51:42;;;;;;;;;;;;;;;;;;4207595;28;5671;-74
2023/07/02 07:53:47;;;;;;;;;;;;;;;23.33;58.90;96756.59;4213096;28;5792;-74
2023/07/02 07:55:50;;;;;;;;;;;;;;;23.35;58.62;96760.66;4213868;28;5785;-74
2023/07/02 07:57:53;;;;;;;;;;;;;;;23.34;58.49;96753.66;4213729;28;5085;-73
2023/07/02 07:59:56;;;;;;;;;;;;;;;23.37;58.72;96763.09;4212854;28;5751;-74
2023/07/02 08:01:59;;;;;;;;;;;;;;;23.39;58.85;96752.81;4209387;28;5789;-73
2023/07/02 08:04:02;;;;;;;;;;;;;;;23.39;58.61;96758.22;4210183;28;5892;-74
2023/07/02 08:06:05;;;;;;;;;;;;;;;23.39;58.69;96753.63;4214892;28;5748;-74
2023/07/02 08:08:08;;;;;;;;;;;;;;;23.40;58.72;96759.81;4212562;28;5787;-74
2023/07/02 08:10:12;;;;;;;;;;;;;;;23.43;58.63;96759.25;4211214;28;5863;-73
2023/07/02 08:12:15;;;;;;;;;;;;;;;23.46;58.48;96759.53;4202023;28;5743;-74
2023/07/02 08:14:18;;;;;;;;;;;;;;;23.49;58.29;96760.88;4213429;28;5756;-73
2023/07/02 08:16:21;;;;;;;;;;;;;;;23.51;58.42;96762.22;4208323;28;6480;-74
2023/07/02 08:18:24;;;;;;;;;;;;;;;23.56;58.41;96769.50;4206321;28;5682;-74
2023/07/02 08:20:27;;;;;;;;;;;;;;;23.60;58.39;96759.78;4204083;28;5832;-74
2023/07/02 08:22:31;;;;;;;;;;;;;;;23.63;58.15;96764.63;4207226;28;6588;-74
2023/07/02 08:24:34;;;;;;;;;;;;;;;23.64;58.14;96758.13;4210529;28;5653;-74
2023/07/02 08:26:38;;;;;;;;;;;;;;;23.64;58.02;96754.63;4208496;28;5692;-74
2023/07/02 08:28:41;;;;;;;;;;;;;;;23.62;58.25;96763.00;4206650;28;5828;-74
2023/07/02 08:30:44;;;;;;;;;;;;;;;23.61;58.08;96758.69;4209204;28;5748;-74
2023/07/02 08:32:47;;;;;;;;;;;;;;;23.63;58.13;96751.13;4208646;28;5657;-74
2023/07/02 08:34:50;;;;;;;;;;;;;;;23.64;57.73;96758.13;4207707;28;7719;-74
2023/07/02 08:36:53;;;;;;;;;;;;;;;23.69;57.75;96757.31;4210762;28;5773;-74
2023/07/02 08:38:56;;;;;;;;;;;;;;;23.72;58.05;96762.16;4207774;28;5686;-74
2023/07/02 08:40:59;;;;;;;;;;;;;;;23.73;57.90;96759.16;4206777;28;5886;-73
2023/07/02 08:43:04;;;;;;;;;;;;;;;23.77;58.12;96764.81;4210496;28;5801;-73
2023/07/02 08:45:08;;;;;;;;;;;;;;;23.78;58.17;96761.84;4205453;28;6315;-73
2023/07/02 08:47:11;;;;;;;;;;;;;;;23.85;57.94;96758.03;4205290;28;5824;-73
2023/07/02 08:49:14;;;;;;;;;;;;;;;23.90;57.46;96763.38;4208170;28;5822;-73
2023/07/02 08:51:17;;;;;;;;;;;;;;;23.91;57.25;96760.44;4213820;28;5948;-73
2023/07/02 08:53:29;;;;;;;;;;;;;;;23.92;57.38;96761.25;4210916;28;5654;-74
2023/07/02 08:55:31;;;;;;;;;;;;;;;23.96;57.47;96759.59;4215829;28;5728;-73
2023/07/02 08:57:35;;;;;;;;;;;;;;;23.99;57.46;96764.41;4203647;28;5694;-73
2023/07/02 08:59:40;;;;;;;;;;;;;;;24.03;57.40;96754.69;4207197;28;5697;-72
2023/07/02 09:01:47;;;;;;;;;;;;;;;24.05;57.20;96752.50;4213718;28;5685;-73
2023/07/02 09:03:50;;;;;;;;;;;;;;;24.04;56.88;96756.31;4202245;28;5972;-73
2023/07/02 09:05:53;;;;;;;;;;;;;;;24.05;57.24;96755.22;4207047;28;5797;-74
2023/07/02 09:07:56;;;;;;;;;;;;;;;24.08;57.02;96754.66;4209469;28;5752;-74
2023/07/02 09:09:59;;;;;;;;;;;;;;;24.09;56.43;96758.97;4215134;28;5661;-73
2023/07/02 09:12:02;;;;;;;;;;;;;;;24.11;56.67;96754.88;4206383;28;5210;-74
2023/07/02 09:14:05;;;;;;;;;;;;;;;24.11;56.36;96745.97;4208668;28;5650;-83
2023/07/02 09:16:09;;;;;;;;;;;;;;;24.13;56.25;96756.53;4210247;28;5851;-82
2023/07/02 09:18:19;;;;;;;;;;;;;;;24.13;56.09;96748.44;4206643;28;5781;-83
2023/07/02 09:20:22;;;;;;;;;;;;;;;24.13;55.82;96745.72;4207651;28;6019;-82
2023/07/02 09:22:25;;;;;;;;;;;;;;;24.15;56.01;96743.53;4210186;28;5829;-83
2023/07/02 09:24:30;;;;;;;;;;;;;;;24.18;55.92;96751.06;4212246;28;6607;-82
2023/07/02 09:26:32;;;;;;;;;;;;;;;24.18;55.47;96748.38;4212270;28;5756;-83
2023/07/02 09:28:35;;;;;;;;;;;;;;;24.18;55.86;96749.19;4214332;28;5736;-83
2023/07/02 09:30:38;;;;;;;;;;;;;;;24.18;55.18;96746.47;4207922;28;5854;-82
2023/07/02 09:32:42;;;;;;;;;;;;;;;24.20;55.20;96752.41;4217798;28;5783;-83
2023/07/02 09:34:45;;;;;;;;;;;;;;;24.19;54.85;96750.78;4208879;28;5793;-83
2023/07/02 09:36:49;;;;;;;;;;;;;;;24.20;55.08;96749.69;4211880;28;5852;-83
2023/07/02 09:38:52;;;;;;;;;;;;;;;24.21;54.56;96745.91;4213485;28;5903;-83
2023/07/02 09:40:55;;;;;;;;;;;;;;;24.23;55.04;96749.13;4217078;28;5812;-83
2023/07/02 09:43:00;;;;;;;;;;;;;;;24.23;54.62;96745.63;4209674;28;5673;-83
2023/07/02 09:45:04;;;;;;;;;;;;;;;24.23;54.77;96748.31;4218348;28;5673;-84
2023/07/02 09:47:08;;;;;;;;;;;;;;;24.24;54.44;96745.38;4220635;28;5677;-83
2023/07/02 09:49:17;;;;;;;;;;;;;;;24.28;54.65;96741.00;4214266;28;5788;-83
2023/07/02 09:51:21;;;;;;;;;;;;;;;24.33;54.38;96745.59;4210668;28;5875;-83
2023/07/02 09:53:24;;;;;;;;;;;;;;;24.36;54.65;96743.16;4210042;28;5678;-83
2023/07/02 09:55:27;;;;;;;;;;;;;;;24.37;54.28;96736.66;4210986;28;5764;-83
2023/07/02 09:57:31;;;;;;;;;;;;;;;24.38;54.28;96738.25;4215021;28;5813;-83
2023/07/02 09:59:34;;;;;;;;;;;;;;;24.41;54.28;96744.19;4214596;28;5884;-84
2023/07/02 10:01:37;;;;;;;;;;;;;;;24.44;54.30;96739.00;4212868;28;5809;-75
2023/07/02 10:03:40;;;;;;;;;;;;;;;24.46;53.95;96727.91;4201003;28;5939;-75
2023/07/02 10:05:45;;;;;;;;;;;;;;;24.48;53.78;96736.56;4209662;28;5774;-68
2023/07/02 10:07:48;;;;;;;;;;;;;;;24.48;54.04;96737.38;4203730;28;5747;-75
2023/07/02 10:09:51;;;;;;;;;;;;;;;24.49;53.84;96738.97;4206694;28;5907;-74
2023/07/02 10:11:54;;;;;;;;;;;;;;;24.52;54.00;96740.31;4216693;28;7729;-70
2023/07/02 10:14:00;;;;;;;;;;;;;;;24.50;53.89;96727.09;4214784;28;5910;-81
2023/07/02 10:16:03;;;;;;;;;;;;;;;24.53;53.55;96731.91;4209145;28;5117;-74
2023/07/02 10:18:07;;;;;;;;;;;;;;;24.56;53.59;96727.81;4218060;28;5689;-73
2023/07/02 10:20:11;;;;;;;;;;;;;;;24.56;53.86;96730.53;4207970;28;5788;-72
2023/07/02 10:22:16;;;;;;;;;;;;;;;24.55;53.69;96727.03;4207170;28;5763;-76
2023/07/02 10:24:19;;;;;;;;;;;;;;;24.52;53.61;96727.59;4207579;28;5752;-74
2023/07/02 10:26:21;;;;;;;;;;;;;;;24.49;53.73;96730.06;4212982;28;5728;-72
2023/07/02 10:28:26;;;;;;;;;;;;;;;24.48;53.26;96729.25;4211334;28;5670;-72
2023/07/02 10:30:34;;;;;;;;;;;;;;;24.49;53.21;96727.38;4204442;28;5751;-71
2023/07/02 10:32:39;;;;;;;;;;;;;;;24.51;53.46;96731.41;4213700;28;5836;-72
2023/07/02 10:34:41;;;;;;;;;;;;;;;24.53;53.25;96733.81;4210090;28;5685;-64
2023/07/02 10:36:44;;;;;;;;;;;;;;;24.55;53.24;96729.72;4208419;28;5759;-74
2023/07/02 10:38:49;;;;;;;;;;;;;;;24.59;53.05;96733.50;4215065;28;5657;-70
2023/07/02 10:40:56;;;;;;;;;;;;;;;24.61;52.95;96727.81;4209013;28;5716;-69
2023/07/02 10:42:59;;;;;;;;;;;;;;;24.61;52.67;96731.31;4204410;28;5738;-71
2023/07/02 10:45:02;;;;;;;;;;;;;;;24.64;52.65;96738.03;4208572;28;5743;-79
2023/07/02 10:47:05;;;;;;;;;;;;;;;24.66;52.92;96738.56;4212462;28;5661;-70
2023/07/02 10:49:09;;;;;;;;;;;;;;;24.67;52.80;96743.66;4205510;28;5756;-70
2023/07/02 10:51:13;;;;;;;;;;;;;;;24.65;52.47;96745.06;4205527;28;5789;-70
2023/07/02 10:53:17;;;;;;;;;;;;;;;24.64;52.48;96740.75;4200845;28;5165;-68
2023/07/02 10:55:23;;;;;;;;;;;;;;;24.63;52.46;96744.53;4201011;28;5796;-68
2023/07/02 10:57:26;;;;;;;;;;;;;;;24.58;52.50;96737.28;4211932;28;5785;-68
2023/07/02 10:59:29;;;;;;;;;;;;;;;24.58;52.71;96740.00;4208447;28;5723;-68
2023/07/02 11:01:32;;;;;;;;;;;;;;;24.58;52.53;96737.28;4204797;28;5802;-68
2023/07/02 11:03:35;;;;;;;;;;;;;;;24.60;52.57;96737.81;4200490;28;5819;-68
2023/07/02 11:05:38;;;;;;;;;;;;;;;24.61;52.33;96736.72;4200866;28;5702;-68
2023/07/02 11:07:42;;;;;;;;;;;;;;;24.62;52.30;96732.91;4200139;28;5768;-68
2023/07/02 11:09:51;;;;;;;;;;;;;;;24.61;52.19;96738.63;4200932;28;5694;-68
2023/07/02 11:11:56;;;;;;;;;;;;;;;24.61;52.15;96730.50;4200566;28;5878;-68
2023/07/02 11:13:59;;;;;;;;;;;;;;;24.60;52.42;96728.88;4209178;28;5839;-69
2023/07/02 11:16:02;;;;;;;;;;;;;;;24.59;52.04;96732.69;4200911;28;5807;-68
2023/07/02 11:18:10;;;;;;;;;;;;;;;24.57;51.93;96729.44;4216543;28;5804;-68
2023/07/02 11:20:14;;;;;;;;;;;;;;;24.55;51.97;96731.63;4210678;28;6608;-69
2023/07/02 11:22:18;;;;;;;;;;;;;;;24.53;52.07;96736.50;4216828;28;5760;-68
2023/07/02 11:24:28;;;;;;;;;;;;;;;24.52;51.76;96732.19;4216947;28;5775;-69
2023/07/02 11:26:38;;;;;;;;;;;;;;;24.51;52.01;96731.41;4217162;28;5790;-69
2023/07/02 11:28:51;;;;;;;;;;;;;;;24.53;52.04;96733.81;4211898;28;5078;-68
2023/07/02 11:30:55;;;;;;;;;;;;;;;24.55;51.98;96734.31;4210006;28;5810;-69
2023/07/02 11:32:58;;;;;;;;;;;;;;;24.55;51.60;96731.63;4201482;28;5840;-69
2023/07/02 11:35:01;;;;;;;;;;;;;;;24.54;51.50;96738.13;4204566;28;5833;-68
2023/07/02 11:37:04;;;;;;;;;;;;;;;24.55;51.41;96745.13;4208523;28;5769;-69
2023/07/02 11:39:07;;;;;;;;;;;;;;;24.55;51.53;96737.03;4208426;28;5954;-69
2023/07/02 11:41:10;;;;;;;;;;;;;;;24.55;51.56;96737.03;4216794;28;5680;-69
2023/07/02 11:43:13;;;;;;;;;;;;;;;24.58;51.43;96739.19;4210045;28;5792;-69
2023/07/02 11:45:17;;;;;;;;;;;;;;;24.56;51.75;96741.34;4208929;28;5675;-69
2023/07/02 11:47:20;;;;;;;;;;;;;;;24.56;51.80;96735.94;4208495;28;5785;-70
2023/07/02 11:49:23;;;;;;;;;;;;;;;24.57;51.64;96734.84;4202715;28;6521;-69
2023/07/02 11:51:26;;;;;;;;;;;;;;;24.60;51.85;96732.41;4212839;28;6342;-69
2023/07/02 11:53:29;;;;;;;;;;;;;;;24.64;51.89;96738.03;4200152;28;5784;-69
2023/07/02 11:55:32;;;;;;;;;;;;;;;24.68;51.47;96736.38;4212568;28;5812;-69
2023/07/02 11:57:34;;;;;;;;;;;;;;;24.70;51.61;96731.50;4207879;28;5779;-69
2023/07/02 11:59:37;;;;;;;;;;;;;;;24.73;51.80;96736.34;4210675;28;5673;-69
2023/07/02 12:01:42;;;;;;;;;;;;;;;24.77;51.87;96736.56;4210869;28;5669;-69
2023/07/02 12:03:45;;;;;;;;;;;;;;;24.80;51.79;96736.78;4216286;28;5677;-69
2023/07/02 12:05:48;;;;;;;;;;;;;;;24.84;51.93;96735.16;4214387;28;5684;-69
2023/07/02 12:07:52;;;;;;;;;;;;;;;24.87;51.64;96739.97;4213714;28;5480;-69
2023/07/02 12:09:56;;;;;;;;;;;;;;;24.89;51.96;96745.91;4208684;28;5793;-69
2023/07/02 12:11:59;;;;;;;;;;;;;;;24.92;51.91;96734.53;4207549;28;5698;-69
2023/07/02 12:14:01;;;;;;;;;;;;;;;24.95;51.79;96742.06;4203748;28;5802;-69
2023/07/02 12:16:04;;;;;;;;;;;;;;;24.95;51.52;96736.66;4204215;28;5758;-68
2023/07/02 12:18:09;;;;;;;;;;;;;;;24.97;51.92;96741.78;4209583;28;5760;-69
2023/07/02 12:20:12;;;;;;;;;;;;;;;24.97;51.86;96737.16;4215693;28;7707;-69
2023/07/02 12:22:17;;;;;;;;;;;;;;;25.01;51.79;96742.00;4215919;28;5661;-69
2023/07/02 12:24:20;;;;;;;;;;;;;;;25.02;51.40;96743.63;4214693;28;5125;-71
2023/07/02 12:26:23;;;;;;;;;;;;;;;25.02;51.83;96740.94;4205352;28;5756;-68
2023/07/02 12:28:26;;;;;;;;;;;;;;;25.02;51.84;96738.22;4207321;28;5693;-67
2023/07/02 12:30:29;;;;;;;;;;;;;;;25.03;51.85;96742.53;4206623;28;5681;-66
2023/07/02 12:32:32;;;;;;;;;;;;;;;25.04;51.75;96746.88;4203020;28;5878;-66
2023/07/02 12:34:36;;;;;;;;;;;;;;;25.05;51.76;96741.19;4205853;28;5677;-67
2023/07/02 12:36:39;;;;;;;;;;;;;;;25.07;51.36;96740.91;4210441;28;5665;-69
2023/07/02 12:38:42;;;;;;;;;;;;;;;25.08;51.43;96745.22;4205131;28;5785;-68
2023/07/02 12:40:45;;;;;;;;;;;;;;;25.08;51.40;96743.31;4205543;28;5675;-70
2023/07/02 12:42:49;;;;;;;;;;;;;;;25.08;51.78;96739.78;4211681;28;5717;-70
2023/07/02 12:44:52;;;;;;;;;;;;;;;25.08;51.58;96746.00;4201444;28;5713;-69
2023/07/02 12:46:55;;;;;;;;;;;;;;;25.10;51.40;96743.00;4203141;28;5892;-68
2023/07/02 12:48:57;;;;;;;;;;;;;;;25.10;51.33;96737.59;4209061;28;5874;-70
2023/07/02 12:51:02;;;;;;;;;;;;;;;25.13;51.71;96747.84;4201645;28;5853;-67
2023/07/02 12:53:05;;;;;;;;;;;;;;;25.11;51.50;96733.81;4204789;28;7801;-65
2023/07/02 12:55:09;;;;;;;;;;;;;;;25.11;51.49;96726.50;4208411;28;5783;-68
2023/07/02 12:57:14;;;;;;;;;;;;;;;25.09;51.45;96723.28;4210696;28;5692;-66
2023/07/02 12:59:19;;;;;;;;;;;;;;;25.10;51.09;96726.78;4199019;28;5767;-66
2023/07/02 13:01:21;;;;;;;;;;;;;;;25.08;50.90;96728.97;4213361;28;5131;-67
2023/07/02 13:03:24;;;;;;;;;;;;;;;25.07;51.21;96728.19;4206504;28;5740;-66
2023/07/02 13:05:28;;;;;;;;;;;;;;;25.06;50.67;96725.75;4208188;28;5767;-67
2023/07/02 13:07:32;;;;;;;;;;;;;;;25.04;50.86;96727.94;4205334;28;5654;-66
2023/07/02 13:09:35;;;;;;;;;;;;;;;25.04;50.99;96719.84;4204797;28;5116;-75
2023/07/02 13:11:38;;;;;;;;;;;;;;;25.02;50.60;96732.81;4205935;28;5785;-74
2023/07/02 13:13:41;;;;;;;;;;;;;;;25.02;50.64;96724.69;4209276;28;5677;-72
2023/07/02 13:15:43;;;;;;;;;;;;;;;25.02;50.63;96730.91;4210993;28;6374;-74
2023/07/02 13:17:47;;;;;;;;;;;;;;;25.05;50.95;96726.84;4205351;28;5793;-80
2023/07/02 13:19:50;;;;;;;;;;;;;;;25.07;50.94;96721.97;4201490;28;5777;-74
2023/07/02 13:21:53;;;;;;;;;;;;;;;25.08;50.52;96718.97;4208717;28;5808;-70
2023/07/02 13:23:57;;;;;;;;;;;;;;;25.08;50.52;96718.97;4217728;28;5760;-75
2023/07/02 13:26:00;;;;;;;;;;;;;;;25.09;50.67;96723.28;4210417;28;6497;-73
2023/07/02 13:28:03;;;;;;;;;;;;;;;25.08;50.43;96728.97;4208995;28;5690;-77
2023/07/02 13:30:08;;;;;;;;;;;;;;;25.08;50.60;96720.88;4206439;28;5871;-72
2023/07/02 13:32:11;;;;;;;;;;;;;;;25.08;50.50;96716.25;4207005;28;5876;-72
2023/07/02 13:34:14;;;;;;;;;;;;;;;25.09;50.18;96733.28;4213256;28;6463;-70
2023/07/02 13:36:17;;;;;;;;;;;;;;;25.09;50.55;96725.19;4217058;28;5773;-72
2023/07/02 13:38:21;;;;;;;;;;;;;;;25.08;50.28;96723.56;4216314;28;5848;-73
2023/07/02 13:40:26;;;;;;;;;;;;;;;25.06;50.38;96725.75;4212049;28;5090;-72
2023/07/02 13:42:30;;;;;;;;;;;;;;;25.09;50.42;96730.59;4211447;28;5688;-74
2023/07/02 13:44:32;;;;;;;;;;;;;;;25.10;50.05;96729.50;4212524;28;5805;-76
2023/07/02 13:46:36;;;;;;;;;;;;;;;25.09;50.00;96728.69;4210422;28;5665;-73
2023/07/02 13:48:40;;;;;;;;;;;;;;;25.09;49.92;96725.19;4214795;28;5704;-74
2023/07/02 13:50:43;;;;;;;;;;;;;;;25.10;50.21;96724.09;4213075;28;5672;-73
2023/07/02 13:52:46;;;;;;;;;;;;;;;25.08;49.81;96724.38;4210694;28;5665;-74
2023/07/02 13:54:49;;;;;;;;;;;;;;;25.12;49.91;96730.00;4214249;28;6721;-73
2023/07/02 13:56:54;;;;;;;;;;;;;;;25.12;50.23;96721.91;4212554;28;5688;-75
2023/07/02 13:59:03;;;;;;;;;;;;;;;25.15;50.16;96726.75;4213417;28;5747;-70
2023/07/02 14:01:06;;;;;;;;;;;;;;;25.18;50.01;96723.47;4212502;28;6552;-78
2023/07/02 14:03:09;;;;;;;;;;;;;;;25.18;49.80;96713.44;4212198;28;5695;-77
2023/07/02 14:05:12;;;;;;;;;;;;;;;25.17;50.08;96722.66;4210140;28;5775;-69
2023/07/02 14:07:15;;;;;;;;;;;;;;;25.17;49.85;96724.56;4207412;28;5804;-72
2023/07/02 14:09:18;;;;;;;;;;;;;;;25.18;49.99;96723.47;4202221;28;5693;-72
2023/07/02 14:11:22;;;;;;;;;;;;;;;25.17;49.79;96709.13;4209918;28;5795;-75
2023/07/02 14:13:24;;;;;;;;;;;;;;;25.18;49.87;96728.88;4213254;28;5706;-67
2023/07/02 14:15:29;;;;;;;;;;;;;;;25.17;49.91;96725.34;4216135;28;6409;-67
2023/07/02 14:17:33;;;;;;;;;;;;;;;25.17;49.93;96711.03;4212335;28;5863;-75
2023/07/02 14:19:36;;;;;;;;;;;;;;;25.18;49.71;96718.84;4211063;28;5703;-74
2023/07/02 14:21:39;;;;;;;;;;;;;;;25.18;49.55;96712.63;4204576;28;5687;-72
2023/07/02 14:23:42;;;;;;;;;;;;;;;25.18;49.41;96718.84;4207533;28;5781;-74
2023/07/02 14:25:45;;;;;;;;;;;;;;;25.20;49.68;96715.84;4217363;28;5760;-72
2023/07/02 14:27:48;;;;;;;;;;;;;;;25.21;49.76;96712.06;4210502;28;6498;-66
2023/07/02 14:29:50;;;;;;;;;;;;;;;25.20;49.34;96719.38;4211502;28;5761;-72
2023/07/02 14:31:55;;;;;;;;;;;;;;;25.22;49.18;96719.06;4213164;28;6588;-73
2023/07/02 14:33:58;;;;;;;;;;;;;;;25.21;49.28;96723.69;4215511;28;5767;-71
2023/07/02 14:36:01;;;;;;;;;;;;;;;25.24;49.42;96727.69;4214771;28;5764;-73
2023/07/02 14:38:04;;;;;;;;;;;;;;;25.25;49.03;96723.91;4208902;28;5756;-70
2023/07/02 14:40:08;;;;;;;;;;;;;;;25.27;49.25;96718.22;4214910;28;6432;-73
2023/07/02 14:42:11;;;;;;;;;;;;;;;25.26;49.13;96717.41;4207677;28;5896;-74
2023/07/02 14:44:14;;;;;;;;;;;;;;;25.25;48.88;96713.06;4210662;28;5677;-76
2023/07/02 14:46:17;;;;;;;;;;;;;;;25.23;49.03;96710.66;4207492;28;5848;-71
2023/07/02 14:48:22;;;;;;;;;;;;;;;25.24;48.79;96714.97;4210565;28;5882;-76
2023/07/02 14:50:25;;;;;;;;;;;;;;;25.24;48.85;96719.59;4210029;28;5760;-78
2023/07/02 14:52:28;;;;;;;;;;;;;;;25.24;48.43;96717.69;4207780;28;5878;-74
2023/07/02 14:54:31;;;;;;;;;;;;;;;25.25;48.49;96713.88;4203936;28;5898;-69
2023/07/02 14:56:35;;;;;;;;;;;;;;;25.27;48.21;96715.53;4211219;28;5767;-68
2023/07/02 14:58:38;;;;;;;;;;;;;;;25.28;48.38;96712.53;4209741;28;5760;-70
2023/07/02 15:00:45;;;;;;;;;;;;;;;25.31;48.28;96714.63;4211834;28;5661;-71
2023/07/02 15:02:48;;;;;;;;;;;;;;;25.32;48.27;96713.53;4208371;28;5787;-88
2023/07/02 15:04:53;;;;;;;;;;;;;;;25.36;48.05;96711.06;4210277;28;6738;-72
2023/07/02 15:06:57;;;;;;;;;;;;;;;25.35;47.98;96712.97;4212603;28;5681;-72
2023/07/02 15:09:00;;;;;;;;;;;;;;;25.36;48.01;96709.16;4205429;28;5775;-73
2023/07/02 15:11:03;;;;;;;;;;;;;;;25.38;47.73;96717.00;4208859;28;5789;-72
2023/07/02 15:13:06;;;;;;;;;;;;;;;25.40;47.67;96710.22;4206998;28;5854;-71
2023/07/02 15:15:09;;;;;;;;;;;;;;;25.43;47.62;96719.63;4214533;28;5673;-83
2023/07/02 15:17:14;;;;;;;;;;;;;;;25.46;47.49;96713.63;4213764;28;5807;-75
2023/07/02 15:19:16;;;;;;;;;;;;;;;25.45;47.46;96718.25;4206981;28;6477;-79
2023/07/02 15:21:22;;;;;;;;;;;;;;;25.44;47.30;96708.53;4209686;28;7300;-72
2023/07/02 15:23:25;;;;;;;;;;;;;;;25.45;47.57;96710.13;4210201;28;5672;-78
2023/07/02 15:25:30;;;;;;;;;;;;;;;25.46;47.42;96708.22;4215533;28;5781;-75
2023/07/02 15:27:33;;;;;;;;;;;;;;;25.48;47.02;96714.16;4206417;28;6570;-73
2023/07/02 15:29:36;;;;;;;;;;;;;;;25.51;47.11;96710.88;4203872;28;7245;-73
2023/07/02 15:31:41;;;;;;;;;;;;;;;25.50;47.14;96710.06;4210263;28;5784;-76
2023/07/02 15:33:45;;;;;;;;;;;;;;;25.51;47.04;96708.19;4209433;28;5807;-75
2023/07/02 15:35:48;;;;;;;;;;;;;;;25.53;47.09;96708.69;4208695;28;5682;-74
2023/07/02 15:37:53;;;;;;;;;;;;;;;25.52;47.24;96713.28;4204935;28;5844;-73
2023/07/02 15:39:56;;;;;;;;;;;;;;;25.53;47.19;96711.38;4206507;28;5843;-70
2023/07/02 15:41:59;;;;;;;;;;;;;;;25.54;47.48;96713.00;4207030;28;5690;-70
2023/07/02 15:44:03;;;;;;;;;;;;;;;25.55;47.53;96718.13;4208144;28;5649;-69
2023/07/02 15:46:06;;;;;;;;;;;;;;;25.59;47.39;96725.66;4205332;28;5919;-71
2023/07/02 15:48:10;;;;;;;;;;;;;;;25.58;47.67;96722.13;4204294;28;5879;-71
2023/07/02 15:50:13;;;;;;;;;;;;;;;25.56;47.95;96713.50;4208270;28;5686;-72
2023/07/02 15:52:16;;;;;;;;;;;;;;;25.58;48.03;96722.13;4210358;28;5132;-70
2023/07/02 15:54:21;;;;;;;;;;;;;;;25.59;48.03;96717.53;4204561;28;5831;-67
2023/07/02 15:56:23;;;;;;;;;;;;;;;25.58;48.08;96718.63;4208357;28;5887;-68
2023/07/02 15:58:28;;;;;;;;;;;;;;;25.59;48.19;96710.22;4209490;28;5779;-67
2023/07/02 16:00:31;;;;;;;;;;;;;;;25.60;47.91;96702.94;4208254;28;5752;-67